sensor_id;sensor_type;location;lat;lon;timestamp;pressure;altitude;pressure_sealevel;temperature;humidity
19672;BME280;9983;51.114;13.788;2023-09-08T00:03:15;99951.97;;;19.34;100.00
19672;BME280;9983;51.114;13.788;2023-09-08T00:08:15;99954.69;;;19.03;100.00
19672;BME280;9983;51.114;13.788;2023-09-08T00:13:15;99958.09;;;18.91;100.00
19672;BME280;9983;51.114;13.788;2023-09-08T00:18:16;99958.72;;;18.93;100.00
19672;BME280;9983;51.114;13.788;2023-09-08T00:23:16;99959.50;;;19.01;100.00
19672;BME280;9983;51.114;13.788;2023-09-08T00:28:16;99955.19;;;18.86;100.00
19672;BME280;9983;51.114;13.788;2023-09-08T00:33:16;99950.28;;;18.70;100.00
19672;BME280;9983;51.114;13.788;2023-09-08T00:38:17;99953.16;;;18.82;100.00
19672;BME280;9983;51.114;13.788;2023-09-08T00:43:17;99960.16;;;18.96;100.00
19672;BME280;9983;51.114;13.788;2023-09-08T00:48:18;99969.31;;;18.64;100.00
19672;BME280;9983;51.114;13.788;2023-09-08T00:53:18;99966.56;;;18.70;100.00
19672;BME280;9983;51.114;13.788;2023-09-08T00:58:19;99962.56;;;18.79;100.00
19672;BME280;9983;51.114;13.788;2023-09-08T01:03:19;99971.63;;;18.47;100.00
19672;BME280;9983;51.114;13.788;2023-09-08T01:08:20;99962.06;;;18.25;100.00
19672;BME280;9983;51.114;13.788;2023-09-08T01:13:20;99966.81;;;18.55;100.00
19672;BME280;9983;51.114;13.788;2023-09-08T01:18:20;99961.25;;;18.31;100.00
19672;BME280;9983;51.114;13.788;2023-09-08T01:23:22;99958.69;;;18.42;100.00
19672;BME280;9983;51.114;13.788;2023-09-08T01:28:24;99959.53;;;18.43;100.00
19672;BME280;9983;51.114;13.788;2023-09-08T01:33:25;99954.53;;;18.40;100.00
19672;BME280;9983;51.114;13.788;2023-09-08T01:38:26;99951.09;;;18.06;100.00
19672;BME280;9983;51.114;13.788;2023-09-08T01:43:27;99955.44;;;18.20;100.00
19672;BME280;9983;51.114;13.788;2023-09-08T01:48:27;99959.63;;;18.03;100.00
19672;BME280;9983;51.114;13.788;2023-09-08T01:53:27;99947.69;;;18.31;100.00
19672;BME280;9983;51.114;13.788;2023-09-08T01:58:28;99946.16;;;18.48;100.00
19672;BME280;9983;51.114;13.788;2023-09-08T02:03:28;99944.91;;;18.44;100.00
19672;BME280;9983;51.114;13.788;2023-09-08T02:08:28;99934.50;;;18.41;100.00
19672;BME280;9983;51.114;13.788;2023-09-08T02:13:28;99937.44;;;18.33;100.00
19672;BME280;9983;51.114;13.788;2023-09-08T02:18:29;99942.03;;;18.26;100.00
19672;BME280;9983;51.114;13.788;2023-09-08T02:23:29;99938.25;;;18.33;100.00
19672;BME280;9983;51.114;13.788;2023-09-08T02:28:29;99937.06;;;18.16;100.00
19672;BME280;9983;51.114;13.788;2023-09-08T02:33:29;99939.94;;;18.28;100.00
19672;BME280;9983;51.114;13.788;2023-09-08T02:38:30;99950.38;;;18.37;100.00
19672;BME280;9983;51.114;13.788;2023-09-08T02:43:30;99943.63;;;18.53;100.00
19672;BME280;9983;51.114;13.788;2023-09-08T02:48:30;99939.09;;;18.34;100.00
19672;BME280;9983;51.114;13.788;2023-09-08T02:53:31;99945.34;;;18.41;100.00
19672;BME280;9983;51.114;13.788;2023-09-08T02:58:31;99935.03;;;17.98;100.00
19672;BME280;9983;51.114;13.788;2023-09-08T03:03:34;99922.94;;;17.88;100.00
19672;BME280;9983;51.114;13.788;2023-09-08T03:08:35;99919.16;;;18.02;100.00
19672;BME280;9983;51.114;13.788;2023-09-08T03:13:36;99910.81;;;17.83;100.00
19672;BME280;9983;51.114;13.788;2023-09-08T03:18:37;99919.19;;;17.82;100.00
19672;BME280;9983;51.114;13.788;2023-09-08T03:23:40;99916.28;;;17.64;100.00
19672;BME280;9983;51.114;13.788;2023-09-08T03:28:42;99906.22;;;17.58;100.00
19672;BME280;9983;51.114;13.788;2023-09-08T03:33:43;99901.66;;;17.78;100.00
19672;BME280;9983;51.114;13.788;2023-09-08T03:38:43;99907.91;;;17.59;100.00
19672;BME280;9983;51.114;13.788;2023-09-08T03:43:44;99911.25;;;17.48;100.00
19672;BME280;9983;51.114;13.788;2023-09-08T03:48:44;99905.41;;;17.90;100.00
19672;BME280;9983;51.114;13.788;2023-09-08T03:53:44;99912.53;;;17.71;100.00
19672;BME280;9983;51.114;13.788;2023-09-08T03:58:44;99903.75;;;17.76;100.00
19672;BME280;9983;51.114;13.788;2023-09-08T04:03:45;99903.75;;;17.56;100.00
19672;BME280;9983;51.114;13.788;2023-09-08T04:08:45;99909.16;;;17.50;100.00
19672;BME280;9983;51.114;13.788;2023-09-08T04:13:45;99911.25;;;17.34;100.00
19672;BME280;9983;51.114;13.788;2023-09-08T04:18:45;99905.41;;;17.11;100.00
19672;BME280;9983;51.114;13.788;2023-09-08T04:23:46;99915.00;;;17.20;100.00
19672;BME280;9983;51.114;13.788;2023-09-08T04:28:46;99912.09;;;17.15;100.00
19672;BME280;9983;51.114;13.788;2023-09-08T04:33:47;99917.50;;;17.15;100.00
19672;BME280;9983;51.114;13.788;2023-09-08T04:38:47;99922.88;;;16.89;100.00
19672;BME280;9983;51.114;13.788;2023-09-08T04:43:47;99922.44;;;16.92;100.00
19672;BME280;9983;51.114;13.788;2023-09-08T04:48:47;99933.69;;;16.89;100.00
19672;BME280;9983;51.114;13.788;2023-09-08T04:53:48;99927.47;;;16.95;100.00
19672;BME280;9983;51.114;13.788;2023-09-08T04:58:48;99923.28;;;16.92;100.00
19672;BME280;9983;51.114;13.788;2023-09-08T05:03:48;99926.19;;;16.91;100.00
19672;BME280;9983;51.114;13.788;2023-09-08T05:08:49;99923.31;;;17.25;100.00
19672;BME280;9983;51.114;13.788;2023-09-08T05:13:49;99922.09;;;17.21;100.00
19672;BME280;9983;51.114;13.788;2023-09-08T05:18:49;99922.91;;;17.41;100.00
19672;BME280;9983;51.114;13.788;2023-09-08T05:23:50;99924.59;;;17.42;100.00
19672;BME280;9983;51.114;13.788;2023-09-08T05:28:50;99929.19;;;17.49;100.00
19672;BME280;9983;51.114;13.788;2023-09-08T05:33:50;99929.00;;;17.57;100.00
19672;BME280;9983;51.114;13.788;2023-09-08T05:38:51;99928.75;;;17.91;100.00
19672;BME280;9983;51.114;13.788;2023-09-08T05:43:51;99939.19;;;17.94;100.00
19672;BME280;9983;51.114;13.788;2023-09-08T05:48:51;99938.13;;;18.08;100.00
19672;BME280;9983;51.114;13.788;2023-09-08T05:53:51;99932.09;;;18.06;100.00
19672;BME280;9983;51.114;13.788;2023-09-08T05:58:52;99939.09;;;18.34;100.00
19672;BME280;9983;51.114;13.788;2023-09-08T06:03:52;99930.72;;;18.48;100.00
19672;BME280;9983;51.114;13.788;2023-09-08T06:08:54;99923.97;;;18.64;100.00
19672;BME280;9983;51.114;13.788;2023-09-08T06:13:54;99932.47;;;18.81;100.00
19672;BME280;9983;51.114;13.788;2023-09-08T06:18:59;99919.25;;;18.91;100.00
19672;BME280;9983;51.114;13.788;2023-09-08T06:23:59;99918.22;;;19.17;100.00
19672;BME280;9983;51.114;13.788;2023-09-08T06:28:59;99923.38;;;19.25;100.00
19672;BME280;9983;51.114;13.788;2023-09-08T06:34:00;99919.28;;;19.47;100.00
19672;BME280;9983;51.114;13.788;2023-09-08T06:39:00;99921.94;;;19.79;100.00
19672;BME280;9983;51.114;13.788;2023-09-08T06:44:00;99926.78;;;19.95;100.00
19672;BME280;9983;51.114;13.788;2023-09-08T06:49:00;99924.84;;;20.20;100.00
19672;BME280;9983;51.114;13.788;2023-09-08T06:54:01;99923.84;;;20.39;100.00
19672;BME280;9983;51.114;13.788;2023-09-08T06:59:01;99925.88;;;20.44;100.00
19672;BME280;9983;51.114;13.788;2023-09-08T07:04:02;99916.41;;;20.65;100.00
19672;BME280;9983;51.114;13.788;2023-09-08T07:09:03;99920.28;;;20.87;100.00
19672;BME280;9983;51.114;13.788;2023-09-08T07:14:03;99920.34;;;21.10;100.00
19672;BME280;9983;51.114;13.788;2023-09-08T07:19:03;99920.34;;;21.40;100.00
19672;BME280;9983;51.114;13.788;2023-09-08T07:24:04;99925.47;;;21.60;100.00
19672;BME280;9983;51.114;13.788;2023-09-08T07:29:04;99923.00;;;21.82;100.00
19672;BME280;9983;51.114;13.788;2023-09-08T07:34:04;99922.19;;;22.05;100.00
19672;BME280;9983;51.114;13.788;2023-09-08T07:39:05;99929.88;;;22.19;98.57
19672;BME280;9983;51.114;13.788;2023-09-08T07:44:06;99934.00;;;22.45;96.76
19672;BME280;9983;51.114;13.788;2023-09-08T07:49:06;99927.91;;;22.66;95.23
19672;BME280;9983;51.114;13.788;2023-09-08T07:54:07;99922.84;;;22.87;91.01
19672;BME280;9983;51.114;13.788;2023-09-08T07:59:07;99926.56;;;23.09;94.87
19672;BME280;9983;51.114;13.788;2023-09-08T08:04:07;99926.84;;;23.24;100.00
19672;BME280;9983;51.114;13.788;2023-09-08T08:09:07;99933.88;;;23.49;98.29
19672;BME280;9983;51.114;13.788;2023-09-08T08:14:08;99929.88;;;23.73;86.96
19672;BME280;9983;51.114;13.788;2023-09-08T08:19:08;99929.53;;;23.86;88.51
19672;BME280;9983;51.114;13.788;2023-09-08T08:24:08;99926.88;;;23.91;92.42
19672;BME280;9983;51.114;13.788;2023-09-08T08:29:08;99915.91;;;24.08;83.26
19672;BME280;9983;51.114;13.788;2023-09-08T08:34:09;99911.00;;;24.27;87.07
19672;BME280;9983;51.114;13.788;2023-09-08T08:39:09;99919.91;;;24.39;84.89
19672;BME280;9983;51.114;13.788;2023-09-08T08:44:10;99910.53;;;24.56;76.29
19672;BME280;9983;51.114;13.788;2023-09-08T08:49:11;99911.31;;;24.52;76.76
19672;BME280;9983;51.114;13.788;2023-09-08T08:54:12;99912.44;;;24.56;71.59
19672;BME280;9983;51.114;13.788;2023-09-08T08:59:13;99908.66;;;24.62;70.65
19672;BME280;9983;51.114;13.788;2023-09-08T09:04:14;99904.06;;;24.89;67.43
19672;BME280;9983;51.114;13.788;2023-09-08T09:09:15;99904.81;;;25.07;68.72
19672;BME280;9983;51.114;13.788;2023-09-08T09:14:16;99892.19;;;25.06;64.33
19672;BME280;9983;51.114;13.788;2023-09-08T09:19:20;99893.38;;;25.15;62.60
19672;BME280;9983;51.114;13.788;2023-09-08T09:29:50;99887.03;;;25.41;61.44
19672;BME280;9983;51.114;13.788;2023-09-08T09:34:53;99880.66;;;25.67;59.24
19672;BME280;9983;51.114;13.788;2023-09-08T09:39:54;99880.72;;;25.78;58.15
19672;BME280;9983;51.114;13.788;2023-09-08T09:44:55;99884.13;;;25.95;61.76
19672;BME280;9983;51.114;13.788;2023-09-08T09:49:55;99871.03;;;26.07;56.50
19672;BME280;9983;51.114;13.788;2023-09-08T09:54:59;99867.84;;;26.30;54.44
19672;BME280;9983;51.114;13.788;2023-09-08T09:59:59;99872.78;;;26.28;57.09
19672;BME280;9983;51.114;13.788;2023-09-08T10:05:10;99868.41;;;26.27;56.79
19672;BME280;9983;51.114;13.788;2023-09-08T10:10:12;99870.97;;;26.49;50.99
19672;BME280;9983;51.114;13.788;2023-09-08T10:15:13;99876.25;;;26.66;51.21
19672;BME280;9983;51.114;13.788;2023-09-08T10:20:19;99864.19;;;26.82;48.50
19672;BME280;9983;51.114;13.788;2023-09-08T10:25:24;99859.25;;;26.89;47.04
19672;BME280;9983;51.114;13.788;2023-09-08T10:30:25;99862.06;;;27.35;45.82
19672;BME280;9983;51.114;13.788;2023-09-08T10:35:25;99860.13;;;27.20;43.53
19672;BME280;9983;51.114;13.788;2023-09-08T10:40:25;99859.53;;;27.89;46.33
19672;BME280;9983;51.114;13.788;2023-09-08T10:45:28;99841.59;;;27.97;43.43
19672;BME280;9983;51.114;13.788;2023-09-08T10:50:35;99843.44;;;28.37;41.73
19672;BME280;9983;51.114;13.788;2023-09-08T10:55:44;99837.44;;;28.79;43.83
19672;BME280;9983;51.114;13.788;2023-09-08T11:00:51;99843.16;;;29.26;38.94
19672;BME280;9983;51.114;13.788;2023-09-08T11:05:55;99844.56;;;29.58;40.37
19672;BME280;9983;51.114;13.788;2023-09-08T11:10:56;99842.84;;;30.14;35.89
19672;BME280;9983;51.114;13.788;2023-09-08T11:15:56;99826.91;;;30.30;33.94
19672;BME280;9983;51.114;13.788;2023-09-08T11:20:57;99835.88;;;31.21;34.89
19672;BME280;9983;51.114;13.788;2023-09-08T11:25:59;99832.44;;;31.89;33.26
19672;BME280;9983;51.114;13.788;2023-09-08T11:30:59;99831.69;;;32.65;32.46
19672;BME280;9983;51.114;13.788;2023-09-08T11:36:00;99826.72;;;33.26;31.68
19672;BME280;9983;51.114;13.788;2023-09-08T11:41:01;99813.84;;;34.48;31.17
19672;BME280;9983;51.114;13.788;2023-09-08T11:46:01;99826.72;;;35.01;28.93
19672;BME280;9983;51.114;13.788;2023-09-08T11:51:02;99817.78;;;36.44;28.38
19672;BME280;9983;51.114;13.788;2023-09-08T11:56:02;99824.22;;;36.65;28.43
19672;BME280;9983;51.114;13.788;2023-09-08T12:01:03;99824.28;;;38.58;25.32
19672;BME280;9983;51.114;13.788;2023-09-08T12:06:04;99820.28;;;38.71;24.33
19672;BME280;9983;51.114;13.788;2023-09-08T12:11:04;99809.56;;;39.72;23.04
19672;BME280;9983;51.114;13.788;2023-09-08T12:16:20;99802.31;;;38.60;23.59
19672;BME280;9983;51.114;13.788;2023-09-08T12:21:22;99811.44;;;38.57;23.42
19672;BME280;9983;51.114;13.788;2023-09-08T12:26:24;99814.41;;;37.01;24.73
19672;BME280;9983;51.114;13.788;2023-09-08T12:31:25;99804.69;;;36.36;24.98
19672;BME280;9983;51.114;13.788;2023-09-08T12:36:25;99790.56;;;35.65;26.50
19672;BME280;9983;51.114;13.788;2023-09-08T12:41:25;99774.25;;;34.69;28.58
19672;BME280;9983;51.114;13.788;2023-09-08T12:46:25;99772.78;;;34.54;28.17
19672;BME280;9983;51.114;13.788;2023-09-08T12:51:26;99765.56;;;33.57;29.71
19672;BME280;9983;51.114;13.788;2023-09-08T12:56:26;99762.84;;;33.34;29.63
19672;BME280;9983;51.114;13.788;2023-09-08T13:01:26;99764.44;;;33.04;32.02
19672;BME280;9983;51.114;13.788;2023-09-08T13:06:26;99759.63;;;33.19;32.05
19672;BME280;9983;51.114;13.788;2023-09-08T13:11:27;99751.81;;;32.76;33.16
19672;BME280;9983;51.114;13.788;2023-09-08T13:16:28;99758.56;;;33.28;31.79
19672;BME280;9983;51.114;13.788;2023-09-08T13:21:28;99763.66;;;32.90;33.34
19672;BME280;9983;51.114;13.788;2023-09-08T13:26:28;99758.47;;;33.42;30.56
19672;BME280;9983;51.114;13.788;2023-09-08T13:31:28;99762.00;;;33.96;30.28
19672;BME280;9983;51.114;13.788;2023-09-08T13:36:29;99743.84;;;34.07;29.61
19672;BME280;9983;51.114;13.788;2023-09-08T13:46:52;99745.06;;;34.40;28.90
19672;BME280;9983;51.114;13.788;2023-09-08T13:51:53;99739.84;;;34.30;28.95
19672;BME280;9983;51.114;13.788;2023-09-08T13:56:59;99740.50;;;34.44;29.29
19672;BME280;9983;51.114;13.788;2023-09-08T14:02:00;99740.16;;;35.23;28.69
19672;BME280;9983;51.114;13.788;2023-09-08T14:07:03;99732.13;;;35.30;32.57
19672;BME280;9983;51.114;13.788;2023-09-08T14:12:04;99723.78;;;36.69;26.81
19672;BME280;9983;51.114;13.788;2023-09-08T14:17:04;99723.97;;;37.75;25.76
19672;BME280;9983;51.114;13.788;2023-09-08T14:22:05;99722.16;;;38.83;23.75
19672;BME280;9983;51.114;13.788;2023-09-08T14:27:05;99722.47;;;39.85;23.98
19672;BME280;9983;51.114;13.788;2023-09-08T14:32:05;99715.28;;;40.92;23.02
19672;BME280;9983;51.114;13.788;2023-09-08T14:37:05;99714.50;;;39.87;24.54
19672;BME280;9983;51.114;13.788;2023-09-08T14:42:07;99716.78;;;38.50;24.14
19672;BME280;9983;51.114;13.788;2023-09-08T14:47:08;99722.50;;;40.93;22.84
19672;BME280;9983;51.114;13.788;2023-09-08T14:52:09;99718.94;;;40.38;23.28
19672;BME280;9983;51.114;13.788;2023-09-08T14:57:09;99715.25;;;39.84;23.99
19672;BME280;9983;51.114;13.788;2023-09-08T15:02:10;99712.81;;;40.90;21.57
19672;BME280;9983;51.114;13.788;2023-09-08T15:07:10;99700.84;;;40.20;24.63
19672;BME280;9983;51.114;13.788;2023-09-08T15:12:10;99707.81;;;39.75;24.16
19672;BME280;9983;51.114;13.788;2023-09-08T15:17:11;99713.34;;;39.72;24.17
19672;BME280;9983;51.114;13.788;2023-09-08T15:22:12;99705.00;;;39.75;25.26
19672;BME280;9983;51.114;13.788;2023-09-08T15:27:13;99698.78;;;39.66;23.90
19672;BME280;9983;51.114;13.788;2023-09-08T15:32:13;99689.69;;;41.43;23.71
19672;BME280;9983;51.114;13.788;2023-09-08T15:37:14;99687.97;;;40.54;22.87
19672;BME280;9983;51.114;13.788;2023-09-08T15:42:14;99682.66;;;40.14;23.77
19672;BME280;9983;51.114;13.788;2023-09-08T15:47:14;99679.91;;;39.20;28.07
19672;BME280;9983;51.114;13.788;2023-09-08T15:52:14;99671.09;;;38.62;28.38
19672;BME280;9983;51.114;13.788;2023-09-08T15:57:15;99678.41;;;38.39;26.36
19672;BME280;9983;51.114;13.788;2023-09-08T16:02:15;99673.19;;;38.25;29.34
19672;BME280;9983;51.114;13.788;2023-09-08T16:07:15;99666.56;;;38.17;28.43
19672;BME280;9983;51.114;13.788;2023-09-08T16:12:15;99668.31;;;36.79;30.97
19672;BME280;9983;51.114;13.788;2023-09-08T16:17:16;99674.03;;;35.32;34.16
19672;BME280;9983;51.114;13.788;2023-09-08T16:22:16;99672.28;;;33.81;36.78
19672;BME280;9983;51.114;13.788;2023-09-08T16:27:16;99668.97;;;33.00;38.04
19672;BME280;9983;51.114;13.788;2023-09-08T16:32:17;99662.97;;;32.76;38.00
19672;BME280;9983;51.114;13.788;2023-09-08T16:37:17;99664.97;;;31.90;39.74
19672;BME280;9983;51.114;13.788;2023-09-08T16:42:17;99659.06;;;30.96;41.11
19672;BME280;9983;51.114;13.788;2023-09-08T16:47:18;99656.63;;;30.05;46.56
19672;BME280;9983;51.114;13.788;2023-09-08T16:52:21;99659.75;;;29.56;51.16
19672;BME280;9983;51.114;13.788;2023-09-08T16:57:22;99654.53;;;29.02;56.12
19672;BME280;9983;51.114;13.788;2023-09-08T17:02:22;99673.81;;;28.73;57.45
19672;BME280;9983;51.114;13.788;2023-09-08T17:07:26;99673.50;;;28.02;63.04
19672;BME280;9983;51.114;13.788;2023-09-08T17:12:27;99675.94;;;27.39;65.16
19672;BME280;9983;51.114;13.788;2023-09-08T17:17:27;99670.44;;;27.29;67.93
19672;BME280;9983;51.114;13.788;2023-09-08T17:22:27;99677.69;;;26.99;69.77
19672;BME280;9983;51.114;13.788;2023-09-08T17:27:28;99685.38;;;26.67;72.38
19672;BME280;9983;51.114;13.788;2023-09-08T17:32:28;99682.63;;;26.52;72.42
19672;BME280;9983;51.114;13.788;2023-09-08T17:37:28;99685.88;;;26.23;72.22
19672;BME280;9983;51.114;13.788;2023-09-08T17:42:29;99685.81;;;26.03;72.17
19672;BME280;9983;51.114;13.788;2023-09-08T17:47:29;99683.50;;;25.64;77.04
19672;BME280;9983;51.114;13.788;2023-09-08T17:52:30;99696.00;;;25.45;72.69
19672;BME280;9983;51.114;13.788;2023-09-08T17:57:30;99684.19;;;25.45;74.36
19672;BME280;9983;51.114;13.788;2023-09-08T18:02:32;99693.06;;;25.10;79.56
19672;BME280;9983;51.114;13.788;2023-09-08T18:07:32;99692.97;;;25.00;78.65
19672;BME280;9983;51.114;13.788;2023-09-08T18:12:33;99688.16;;;24.48;81.92
19672;BME280;9983;51.114;13.788;2023-09-08T18:17:33;99683.28;;;24.28;83.29
19672;BME280;9983;51.114;13.788;2023-09-08T18:22:33;99682.91;;;24.19;81.70
19672;BME280;9983;51.114;13.788;2023-09-08T18:27:34;99688.19;;;23.99;79.49
19672;BME280;9983;51.114;13.788;2023-09-08T18:32:34;99688.19;;;23.99;80.84
19672;BME280;9983;51.114;13.788;2023-09-08T18:37:34;99676.69;;;24.02;78.48
19672;BME280;9983;51.114;13.788;2023-09-08T18:42:35;99683.03;;;23.81;77.81
19672;BME280;9983;51.114;13.788;2023-09-08T18:47:35;99683.00;;;24.03;75.85
19672;BME280;9983;51.114;13.788;2023-09-08T18:52:35;99697.84;;;23.41;83.63
19672;BME280;9983;51.114;13.788;2023-09-08T18:57:35;99692.78;;;23.72;78.48
19672;BME280;9983;51.114;13.788;2023-09-08T19:02:36;99687.44;;;23.82;75.02
19672;BME280;9983;51.114;13.788;2023-09-08T19:07:36;99689.81;;;23.73;73.59
19672;BME280;9983;51.114;13.788;2023-09-08T19:12:36;99695.03;;;23.36;76.15
19672;BME280;9983;51.114;13.788;2023-09-08T19:17:36;99697.56;;;23.21;84.83
19672;BME280;9983;51.114;13.788;2023-09-08T19:22:37;99701.38;;;23.20;80.88
19672;BME280;9983;51.114;13.788;2023-09-08T19:27:38;99694.38;;;23.29;74.68
19672;BME280;9983;51.114;13.788;2023-09-08T19:32:38;99689.56;;;22.98;81.33
19672;BME280;9983;51.114;13.788;2023-09-08T19:37:39;99699.59;;;22.76;80.21
19672;BME280;9983;51.114;13.788;2023-09-08T19:42:39;99686.56;;;22.99;75.91
19672;BME280;9983;51.114;13.788;2023-09-08T19:47:39;99689.13;;;22.73;83.54
19672;BME280;9983;51.114;13.788;2023-09-08T19:52:40;99691.25;;;22.37;84.65
19672;BME280;9983;51.114;13.788;2023-09-08T19:57:40;99690.72;;;22.07;82.84
19672;BME280;9983;51.114;13.788;2023-09-08T20:02:42;99693.38;;;21.78;88.07
19672;BME280;9983;51.114;13.788;2023-09-08T20:07:43;99685.31;;;21.83;90.71
19672;BME280;9983;51.114;13.788;2023-09-08T20:12:43;99695.75;;;21.35;92.93
19672;BME280;9983;51.114;13.788;2023-09-08T20:17:44;99684.59;;;21.36;90.79
19672;BME280;9983;51.114;13.788;2023-09-08T20:22:45;99683.81;;;21.76;86.43
19672;BME280;9983;51.114;13.788;2023-09-08T20:27:45;99687.56;;;21.35;91.95
19672;BME280;9983;51.114;13.788;2023-09-08T20:32:46;99687.75;;;20.52;98.87
19672;BME280;9983;51.114;13.788;2023-09-08T20:37:47;99693.91;;;20.59;98.45
19672;BME280;9983;51.114;13.788;2023-09-08T20:42:47;99700.31;;;20.53;97.30
19672;BME280;9983;51.114;13.788;2023-09-08T20:47:48;99692.41;;;20.63;97.80
19672;BME280;9983;51.114;13.788;2023-09-08T20:52:48;99703.97;;;20.47;96.32
19672;BME280;9983;51.114;13.788;2023-09-08T20:57:49;99696.38;;;20.37;98.09
19672;BME280;9983;51.114;13.788;2023-09-08T21:02:49;99700.53;;;20.39;97.59
19672;BME280;9983;51.114;13.788;2023-09-08T21:07:49;99679.13;;;20.13;99.11
19672;BME280;9983;51.114;13.788;2023-09-08T21:12:50;99686.78;;;20.34;97.49
19672;BME280;9983;51.114;13.788;2023-09-08T21:17:50;99681.13;;;20.48;96.79
19672;BME280;9983;51.114;13.788;2023-09-08T21:22:50;99685.00;;;20.10;99.89
19672;BME280;9983;51.114;13.788;2023-09-08T21:27:51;99680.56;;;20.57;94.61
19672;BME280;9983;51.114;13.788;2023-09-08T21:32:52;99683.50;;;20.56;94.15
19672;BME280;9983;51.114;13.788;2023-09-08T21:37:52;99672.38;;;20.16;96.60
19672;BME280;9983;51.114;13.788;2023-09-08T21:42:52;99684.88;;;20.05;99.48
19672;BME280;9983;51.114;13.788;2023-09-08T21:47:53;99687.00;;;20.03;99.00
19672;BME280;9983;51.114;13.788;2023-09-08T21:52:53;99682.06;;;19.82;100.00
19672;BME280;9983;51.114;13.788;2023-09-08T21:57:53;99681.97;;;20.18;96.42
19672;BME280;9983;51.114;13.788;2023-09-08T22:02:54;99676.34;;;20.01;97.84
19672;BME280;9983;51.114;13.788;2023-09-08T22:07:55;99688.44;;;20.05;99.72
19672;BME280;9983;51.114;13.788;2023-09-08T22:12:55;99687.38;;;19.58;100.00
19672;BME280;9983;51.114;13.788;2023-09-08T22:17:56;99683.44;;;19.73;100.00
19672;BME280;9983;51.114;13.788;2023-09-08T22:22:56;99689.63;;;19.43;100.00
19672;BME280;9983;51.114;13.788;2023-09-08T22:27:57;99684.66;;;19.40;100.00
19672;BME280;9983;51.114;13.788;2023-09-08T22:32:58;99677.41;;;19.16;100.00
19672;BME280;9983;51.114;13.788;2023-09-08T22:37:58;99682.78;;;18.79;100.00
19672;BME280;9983;51.114;13.788;2023-09-08T22:42:58;99671.00;;;18.85;100.00
19672;BME280;9983;51.114;13.788;2023-09-08T22:47:59;99663.72;;;19.04;100.00
19672;BME280;9983;51.114;13.788;2023-09-08T22:52:59;99667.88;;;19.43;100.00
19672;BME280;9983;51.114;13.788;2023-09-08T22:58:00;99665.75;;;19.09;100.00
19672;BME280;9983;51.114;13.788;2023-09-08T23:03:00;99659.13;;;19.41;100.00
19672;BME280;9983;51.114;13.788;2023-09-08T23:08:00;99660.28;;;19.52;100.00
19672;BME280;9983;51.114;13.788;2023-09-08T23:13:00;99652.03;;;19.04;100.00
19672;BME280;9983;51.114;13.788;2023-09-08T23:18:01;99650.66;;;19.13;100.00
19672;BME280;9983;51.114;13.788;2023-09-08T23:23:01;99649.97;;;19.36;100.00
19672;BME280;9983;51.114;13.788;2023-09-08T23:28:02;99658.53;;;19.57;100.00
19672;BME280;9983;51.114;13.788;2023-09-08T23:33:03;99657.78;;;19.50;100.00
19672;BME280;9983;51.114;13.788;2023-09-08T23:38:04;99644.63;;;19.29;100.00
19672;BME280;9983;51.114;13.788;2023-09-08T23:43:04;99647.22;;;19.24;100.00
19672;BME280;9983;51.114;13.788;2023-09-08T23:48:05;99641.91;;;19.11;100.00
19672;BME280;9983;51.114;13.788;2023-09-08T23:53:05;99647.75;;;18.71;100.00
19672;BME280;9983;51.114;13.788;2023-09-08T23:58:05;99642.50;;;18.94;100.00
